Time;durP1;ratioP1;P1;durP2;ratioP2;P2;SDS_P1;SDS_P2;PMS_P1;PMS_P2;Temp;Humidity;BMP_temperature;BMP_pressure;BME280_temperature;BME280_humidity;BME280_pressure;Samples;Min_cycle;Max_cycle;Signal;HPM_P1;HPM_P2
2021/03/12 00:02:23;;;;;;;;;;;;;;;21.87;20.13;98497.88;5083011;28;647;-76
2021/03/12 00:04:48;;;;;;;;;;;;;;;21.73;20.38;98498.94;5082794;28;618;-76
2021/03/12 00:07:14;;;;;;;;;;;;;;;21.77;20.41;98508.19;5082644;28;1112;-76
2021/03/12 00:09:39;;;;;;;;;;;;;;;21.44;20.71;98509.19;5081935;28;846;-76
2021/03/12 00:12:05;;;;;;;;;;;;;;;21.60;21.00;98500.78;5082698;28;872;-76
2021/03/12 00:14:31;;;;;;;;;;;;;;;22.01;20.14;98496.78;5081732;28;916;-76
2021/03/12 00:16:56;;;;;;;;;;;;;;;22.24;20.05;98482.56;5082385;28;634;-76
2021/03/12 00:19:22;;;;;;;;;;;;;;;22.39;19.79;98476.59;5081718;28;1894;-76
2021/03/12 00:21:47;;;;;;;;;;;;;;;22.11;19.95;98467.44;5082330;28;963;-76
2021/03/12 00:24:13;;;;;;;;;;;;;;;21.87;20.54;98474.41;5082410;28;882;-76
2021/03/12 00:26:38;;;;;;;;;;;;;;;21.69;20.57;98477.59;5082185;28;1022;-76
2021/03/12 00:29:04;;;;;;;;;;;;;;;21.83;20.52;98486.59;5081559;28;1217;-76
2021/03/12 00:31:29;;;;;;;;;;;;;;;22.29;19.75;98467.88;5082428;28;660;-76
2021/03/12 00:33:55;;;;;;;;;;;;;;;22.28;19.81;98471.16;5081820;28;603;-76
2021/03/12 00:36:21;;;;;;;;;;;;;;;22.44;19.57;98467.56;5081119;28;1145;-76
2021/03/12 00:38:46;;;;;;;;;;;;;;;21.97;20.38;98467.72;5081409;28;1901;-76
2021/03/12 00:41:12;;;;;;;;;;;;;;;21.56;20.73;98460.44;5082093;28;958;-76
2021/03/12 00:43:53;;;;;;;;;;;;;;;21.67;20.60;98443.25;5080902;28;1135;-76
2021/03/12 00:46:30;;;;;;;;;;;;;;;21.51;20.65;98446.78;5081635;28;1191;-76
2021/03/12 00:48:56;;;;;;;;;;;;;;;21.37;20.85;98430.06;5080843;28;1236;-75
2021/03/12 00:51:24;;;;;;;;;;;;;;;21.47;20.92;98434.72;5080899;28;1381;-76
2021/03/12 00:54:12;;;;;;;;;;;;;;;21.30;21.23;98425.34;5067115;28;1357;-76
2021/03/12 00:56:42;;;;;;;;;;;;;;;21.37;21.13;98421.56;5081028;28;1273;-76
2021/03/12 00:59:09;;;;;;;;;;;;;;;21.27;21.00;98407.16;5081179;28;1976;-76
2021/03/12 01:01:43;;;;;;;;;;;;;;;21.30;21.13;98403.50;5081050;28;1445;-76
2021/03/12 01:04:08;;;;;;;;;;;;;;;20.92;21.53;98404.97;5081727;28;677;-76
2021/03/12 01:06:34;;;;;;;;;;;;;;;20.98;21.61;98403.25;5080626;28;1264;-76
2021/03/12 01:09:02;;;;;;;;;;;;;;;21.07;21.32;98411.97;5080502;28;1279;-76
2021/03/12 01:11:31;;;;;;;;;;;;;;;21.00;21.50;98400.78;5080784;28;1258;-76
2021/03/12 01:13:57;;;;;;;;;;;;;;;21.08;21.38;98397.38;5080280;28;1162;-76
2021/03/12 01:16:30;;;;;;;;;;;;;;;20.47;22.19;98386.34;5080481;28;1313;-76
2021/03/12 01:18:58;;;;;;;;;;;;;;;20.90;21.58;98390.47;5080158;28;1967;-76
2021/03/12 01:21:27;;;;;;;;;;;;;;;21.26;21.01;98388.59;5080100;28;1243;-76
2021/03/12 01:23:55;;;;;;;;;;;;;;;21.27;21.08;98380.88;5080031;28;1140;-76
2021/03/12 01:26:23;;;;;;;;;;;;;;;20.88;21.66;98379.59;5080206;28;1351;-76
2021/03/12 01:28:58;;;;;;;;;;;;;;;20.68;21.58;98385.19;5080294;28;1344;-76
2021/03/12 01:31:38;;;;;;;;;;;;;;;21.11;21.46;98378.75;5080436;28;1169;-76
2021/03/12 01:34:08;;;;;;;;;;;;;;;21.78;20.30;98376.63;5080153;28;1276;-76
2021/03/12 01:36:38;;;;;;;;;;;;;;;20.49;22.05;98377.41;5079926;28;1075;-76
2021/03/12 01:39:06;;;;;;;;;;;;;;;21.36;20.79;98367.00;5079083;28;1967;-76
2021/03/12 01:41:32;;;;;;;;;;;;;;;21.44;20.88;98370.47;5080601;28;975;-76
2021/03/12 01:44:03;;;;;;;;;;;;;;;21.26;21.16;98362.31;5079891;28;1223;-76
2021/03/12 01:46:31;;;;;;;;;;;;;;;20.85;21.53;98374.00;5080110;28;1169;-76
2021/03/12 01:48:56;;;;;;;;;;;;;;;21.40;21.05;98353.56;5080287;28;675;-76
2021/03/12 01:51:22;;;;;;;;;;;;;;;21.69;20.64;98342.44;5079423;28;1134;-76
2021/03/12 01:53:47;;;;;;;;;;;;;;;22.37;20.08;98349.41;5079548;28;1236;-76
2021/03/12 01:56:13;;;;;;;;;;;;;;;22.36;19.75;98354.28;5080326;28;1287;-76
2021/03/12 01:59:00;;;;;;;;;;;;;;;22.35;19.69;98347.03;5079105;28;1902;-76
2021/03/12 02:02:01;;;;;;;;;;;;;;;22.57;19.42;98346.50;5039525;28;1023;-76
2021/03/12 02:04:40;;;;;;;;;;;;;;;22.16;20.24;98345.06;5074972;28;1226;-76
2021/03/12 02:07:10;;;;;;;;;;;;;;;21.64;20.72;98342.94;5080027;28;983;-76
2021/03/12 02:09:37;;;;;;;;;;;;;;;21.60;20.74;98342.22;5079139;28;1481;-76
2021/03/12 02:12:15;;;;;;;;;;;;;;;21.43;21.17;98344.19;5080086;28;1125;-76
2021/03/12 02:14:53;;;;;;;;;;;;;;;21.64;20.78;98342.94;5079613;28;1169;-76
2021/03/12 02:17:21;;;;;;;;;;;;;;;21.84;20.60;98335.22;5080227;28;626;-76
2021/03/12 02:20:01;;;;;;;;;;;;;;;21.91;20.54;98339.94;5079706;28;1987;-75
2021/03/12 02:22:26;;;;;;;;;;;;;;;22.02;20.01;98334.84;5079535;28;1240;-76
2021/03/12 02:24:56;;;;;;;;;;;;;;;22.10;20.16;98330.63;5062471;28;1170;-76
2021/03/12 02:27:40;;;;;;;;;;;;;;;22.16;20.24;98319.53;5079928;28;1265;-76
2021/03/12 02:30:06;;;;;;;;;;;;;;;22.14;20.24;98319.19;5063041;28;1210;-76
2021/03/12 02:32:44;;;;;;;;;;;;;;;22.12;20.17;98321.66;5064766;28;967;-76
2021/03/12 02:35:19;;;;;;;;;;;;;;;22.25;19.90;98314.06;5079578;28;909;-76
2021/03/12 02:37:47;;;;;;;;;;;;;;;22.28;19.78;98312.41;5079336;28;1191;-76
2021/03/12 02:40:14;;;;;;;;;;;;;;;22.17;20.08;98311.84;5079027;28;1898;-75
2021/03/12 02:42:47;;;;;;;;;;;;;;;22.23;19.90;98305.22;5064016;28;1196;-76
2021/03/12 02:45:13;;;;;;;;;;;;;;;21.72;20.78;98299.09;5079492;28;615;-76
2021/03/12 02:47:42;;;;;;;;;;;;;;;21.45;20.83;98295.63;5113390;28;1307;-76
2021/03/12 02:50:13;;;;;;;;;;;;;;;21.43;20.77;98310.22;5079316;28;669;-76
2021/03/12 02:52:40;;;;;;;;;;;;;;;21.69;20.44;98311.28;5079127;28;1159;-76
2021/03/12 02:55:06;;;;;;;;;;;;;;;21.82;20.56;98315.06;5078980;28;1494;-76
2021/03/12 02:57:43;;;;;;;;;;;;;;;21.88;20.33;98308.88;5079339;28;1278;-76
2021/03/12 03:00:09;;;;;;;;;;;;;;;22.20;19.96;98308.94;5062316;28;1905;-76
2021/03/12 03:02:44;;;;;;;;;;;;;;;22.22;20.04;98309.28;5080014;28;606;-76
2021/03/12 03:05:30;;;;;;;;;;;;;;;22.24;19.99;98306.03;5079036;28;1054;-76
2021/03/12 03:07:56;;;;;;;;;;;;;;;22.26;19.90;98307.16;5095480;28;1135;-75
2021/03/12 03:10:22;;;;;;;;;;;;;;;22.35;20.10;98307.34;5079087;28;1121;-76
2021/03/12 03:12:47;;;;;;;;;;;;;;;22.26;20.07;98304.31;5062307;28;1173;-76
2021/03/12 03:15:14;;;;;;;;;;;;;;;22.12;20.18;98299.00;5062572;28;1154;-76
2021/03/12 03:17:39;;;;;;;;;;;;;;;22.22;19.89;98297.13;5062236;28;1424;-76
2021/03/12 03:20:06;;;;;;;;;;;;;;;21.78;20.74;98303.00;5065647;28;1897;-75
2021/03/12 03:22:32;;;;;;;;;;;;;;;21.52;20.82;98299.13;5083235;28;860;-75
2021/03/12 03:24:57;;;;;;;;;;;;;;;21.51;21.14;98299.56;5082333;28;1299;-75
2021/03/12 03:27:23;;;;;;;;;;;;;;;21.77;20.64;98284.41;5082838;28;1198;-75
2021/03/12 03:29:48;;;;;;;;;;;;;;;21.95;20.64;98264.16;5082086;28;896;-76
2021/03/12 03:32:16;;;;;;;;;;;;;;;22.07;20.26;98262.66;5082860;28;1255;-76
2021/03/12 03:34:42;;;;;;;;;;;;;;;22.24;20.16;98258.63;5082640;28;658;-76
2021/03/12 03:37:08;;;;;;;;;;;;;;;22.29;20.11;98268.63;5082504;28;1324;-76
2021/03/12 03:39:34;;;;;;;;;;;;;;;22.28;20.00;98262.19;5082278;28;1958;-76
2021/03/12 03:42:02;;;;;;;;;;;;;;;22.06;20.33;98244.06;5082539;28;1237;-76
2021/03/12 03:44:28;;;;;;;;;;;;;;;21.60;20.99;98251.59;5065690;28;1363;-76
2021/03/12 03:46:56;;;;;;;;;;;;;;;21.30;21.20;98247.84;5082608;28;590;-76
2021/03/12 03:49:23;;;;;;;;;;;;;;;21.72;20.92;98256.59;5082270;28;1280;-75
2021/03/12 03:51:49;;;;;;;;;;;;;;;21.94;20.44;98253.28;5082721;28;1018;-75
2021/03/12 03:54:21;;;;;;;;;;;;;;;22.07;20.50;98251.31;5081731;28;1282;-75
2021/03/12 03:56:48;;;;;;;;;;;;;;;22.22;20.10;98258.25;5065697;28;1057;-76
2021/03/12 03:59:13;;;;;;;;;;;;;;;22.18;20.42;98254.72;5081614;28;1910;-75
2021/03/12 04:01:40;;;;;;;;;;;;;;;22.27;20.03;98259.75;5065183;28;1018;-76
2021/03/12 04:04:10;;;;;;;;;;;;;;;22.11;20.26;98257.72;5065396;28;1194;-75
2021/03/12 04:06:39;;;;;;;;;;;;;;;21.93;20.44;98268.69;5082068;28;1212;-75
2021/03/12 04:09:05;;;;;;;;;;;;;;;21.59;20.82;98267.00;5064509;28;1181;-76
2021/03/12 04:11:32;;;;;;;;;;;;;;;21.58;21.11;98265.41;5081822;28;833;-75
2021/03/12 04:13:58;;;;;;;;;;;;;;;21.94;20.76;98254.06;5064781;28;1354;-76
2021/03/12 04:16:25;;;;;;;;;;;;;;;22.12;20.58;98247.97;5081839;28;1351;-75
2021/03/12 04:18:51;;;;;;;;;;;;;;;22.12;20.21;98247.97;5081457;28;1902;-75
2021/03/12 04:21:16;;;;;;;;;;;;;;;22.16;20.50;98248.69;5081578;28;1133;-75
2021/03/12 04:23:43;;;;;;;;;;;;;;;22.22;20.52;98255.41;5080747;28;1198;-76
2021/03/12 04:26:09;;;;;;;;;;;;;;;22.24;20.24;98255.78;5065191;28;1205;-75
2021/03/12 04:28:36;;;;;;;;;;;;;;;22.03;20.55;98244.97;5064531;28;1341;-75
2021/03/12 04:31:01;;;;;;;;;;;;;;;21.74;20.94;98239.97;5081054;28;1289;-75
2021/03/12 04:33:29;;;;;;;;;;;;;;;21.70;21.04;98236.41;5064417;28;986;-76
2021/03/12 04:35:58;;;;;;;;;;;;;;;21.83;20.72;98243.00;5081271;28;1232;-76
2021/03/12 04:38:24;;;;;;;;;;;;;;;22.10;20.36;98241.94;5063474;28;1245;-76
2021/03/12 04:40:50;;;;;;;;;;;;;;;22.11;20.60;98235.06;5064848;28;1962;-75
2021/03/12 04:43:19;;;;;;;;;;;;;;;22.10;20.66;98233.44;5080934;28;927;-75
2021/03/12 04:45:44;;;;;;;;;;;;;;;22.25;20.54;98223.38;5064436;28;1307;-75
2021/03/12 04:48:10;;;;;;;;;;;;;;;22.03;20.68;98208.13;5080821;28;1211;-75
2021/03/12 04:50:36;;;;;;;;;;;;;;;21.69;21.19;98208.53;5063981;28;1130;-75
2021/03/12 04:53:04;;;;;;;;;;;;;;;21.62;21.19;98203.84;5064339;28;1312;-75
2021/03/12 04:55:31;;;;;;;;;;;;;;;21.95;20.85;98209.53;5081466;28;924;-75
2021/03/12 04:57:57;;;;;;;;;;;;;;;22.06;20.56;98210.06;5080655;28;1026;-75
2021/03/12 05:00:23;;;;;;;;;;;;;;;22.09;20.46;98204.31;5080348;28;1938;-75
2021/03/12 05:03:04;;;;;;;;;;;;;;;22.30;20.34;98220.00;5066237;28;1359;-76
2021/03/12 05:05:33;;;;;;;;;;;;;;;22.31;20.20;98227.25;5064278;28;1489;-75
2021/03/12 05:07:58;;;;;;;;;;;;;;;21.98;20.32;98229.28;5064117;28;896;-75
2021/03/12 05:10:43;;;;;;;;;;;;;;;21.61;21.19;98229.78;5065862;28;1347;-76
2021/03/12 05:13:09;;;;;;;;;;;;;;;21.45;21.47;98222.84;5063787;28;1333;-75
2021/03/12 05:15:39;;;;;;;;;;;;;;;21.78;21.23;98215.19;5080714;28;1292;-75
2021/03/12 05:18:05;;;;;;;;;;;;;;;21.98;20.85;98209.44;5080958;28;660;-75
2021/03/12 05:20:30;;;;;;;;;;;;;;;22.05;20.75;98208.47;5080606;28;1985;-75
2021/03/12 05:22:56;;;;;;;;;;;;;;;22.07;20.82;98208.81;5080144;28;1324;-75
2021/03/12 05:25:22;;;;;;;;;;;;;;;22.10;20.48;98210.75;5079767;28;1321;-76
2021/03/12 05:27:49;;;;;;;;;;;;;;;22.18;20.53;98212.22;5080480;28;1296;-75
2021/03/12 05:30:15;;;;;;;;;;;;;;;21.68;20.85;98207.75;5079941;28;1310;-75
2021/03/12 05:32:41;;;;;;;;;;;;;;;21.41;21.31;98204.34;5081216;28;626;-76
2021/03/12 05:35:08;;;;;;;;;;;;;;;21.73;21.02;98204.38;5079891;28;1326;-75
2021/03/12 05:37:34;;;;;;;;;;;;;;;22.09;20.48;98206.34;5080435;28;1189;-76
2021/03/12 05:39:59;;;;;;;;;;;;;;;22.16;20.59;98220.34;5080511;28;1898;-76
2021/03/12 05:42:25;;;;;;;;;;;;;;;22.08;20.73;98216.09;5080128;28;610;-76
2021/03/12 05:44:52;;;;;;;;;;;;;;;22.14;20.50;98222.06;5079494;28;1424;-75
2021/03/12 05:47:20;;;;;;;;;;;;;;;22.23;20.28;98228.69;5080427;28;1197;-76
2021/03/12 05:49:46;;;;;;;;;;;;;;;21.75;20.96;98218.09;5079859;28;783;-74
2021/03/12 05:52:11;;;;;;;;;;;;;;;21.44;21.38;98220.44;5079698;28;1757;-76
2021/03/12 05:54:38;;;;;;;;;;;;;;;21.65;21.21;98219.94;5079223;28;1471;-76
2021/03/12 05:57:04;;;;;;;;;;;;;;;21.89;20.83;98214.13;5080254;28;1110;-76
2021/03/12 05:59:31;;;;;;;;;;;;;;;22.17;20.54;98227.59;5080275;28;1914;-75
2021/03/12 06:02:01;;;;;;;;;;;;;;;22.19;20.70;98230.81;5080220;28;882;-74
2021/03/12 06:04:26;;;;;;;;;;;;;;;22.24;20.26;98233.13;5078055;28;973;-71
2021/03/12 06:06:52;;;;;;;;;;;;;;;21.71;20.88;98223.88;5079462;28;1211;-73
2021/03/12 06:09:20;;;;;;;;;;;;;;;21.42;21.17;98222.91;5079252;28;956;-73
2021/03/12 06:11:52;;;;;;;;;;;;;;;21.65;21.16;98225.59;5078083;28;1156;-73
2021/03/12 06:14:22;;;;;;;;;;;;;;;21.92;20.80;98227.44;5079234;28;1129;-73
2021/03/12 06:16:53;;;;;;;;;;;;;;;21.95;20.67;98218.81;5079150;28;994;-73
2021/03/12 06:19:25;;;;;;;;;;;;;;;22.11;20.71;98220.88;5079166;28;1913;-73
2021/03/12 06:22:06;;;;;;;;;;;;;;;22.17;20.45;98224.78;5079240;28;1497;-74
2021/03/12 06:24:33;;;;;;;;;;;;;;;22.19;20.34;98215.84;5078905;28;1237;-72
2021/03/12 06:27:24;;;;;;;;;;;;;;;22.13;20.45;98220.47;5079883;28;605;-74
2021/03/12 06:29:56;;;;;;;;;;;;;;;21.67;21.11;98217.47;5079450;28;1382;-74
2021/03/12 06:32:40;;;;;;;;;;;;;;;21.37;21.51;98214.94;5063891;28;1333;-74
2021/03/12 06:35:26;;;;;;;;;;;;;;;21.71;20.95;98217.38;5078638;28;1000;-73
2021/03/12 06:38:15;;;;;;;;;;;;;;;22.04;20.56;98229.53;5079086;28;1372;-75
2021/03/12 06:40:56;;;;;;;;;;;;;;;22.18;20.60;98229.22;5065949;28;1976;-76
2021/03/12 06:43:33;;;;;;;;;;;;;;;22.03;20.62;98233.63;5063120;28;1549;-81
2021/03/12 06:46:06;;;;;;;;;;;;;;;22.26;20.42;98232.66;5315118;22;3500;-74
2021/03/12 06:49:03;;;;;;;;;;;;;;;22.26;20.58;98241.16;5046738;28;1143;-73
2021/03/12 06:51:56;;;;;;;;;;;;;;;22.21;20.64;98239.66;5092535;28;1319;-74
2021/03/12 06:54:34;;;;;;;;;;;;;;;21.46;21.60;98246.28;5063371;28;1444;-75
2021/03/12 06:57:19;;;;;;;;;;;;;;;21.46;21.26;98246.28;5097485;28;1062;-73
2021/03/12 07:00:12;;;;;;;;;;;;;;;21.73;21.23;98244.03;5062237;28;1963;-75
2021/03/12 07:02:53;;;;;;;;;;;;;;;21.95;20.82;98249.19;5081640;28;964;-74
2021/03/12 07:05:52;;;;;;;;;;;;;;;21.98;20.92;98239.81;5081703;28;1034;-73
2021/03/12 07:08:28;;;;;;;;;;;;;;;22.09;20.74;98231.84;5047760;28;1215;-73
2021/03/12 07:11:25;;;;;;;;;;;;;;;21.89;20.93;98242.47;5062478;28;1030;-72
2021/03/12 07:14:16;;;;;;;;;;;;;;;21.44;21.33;98238.22;5063068;28;629;-71
2021/03/12 07:16:50;;;;;;;;;;;;;;;21.32;21.67;98236.84;5079955;28;1251;-72
2021/03/12 07:19:36;;;;;;;;;;;;;;;21.68;21.32;98230.41;5063814;28;1879;-73
2021/03/12 07:22:08;;;;;;;;;;;;;;;21.97;20.99;98224.06;5096241;28;1045;-72
2021/03/12 07:24:39;;;;;;;;;;;;;;;22.00;20.62;98223.16;5095639;28;1442;-72
2021/03/12 07:27:11;;;;;;;;;;;;;;;22.20;20.45;98232.41;5096577;27;1395;-72
2021/03/12 07:29:57;;;;;;;;;;;;;;;22.36;20.51;98225.91;5058279;28;996;-75
2021/03/12 07:32:36;;;;;;;;;;;;;;;22.41;20.32;98219.72;5076264;28;1253;-73
2021/03/12 07:35:10;;;;;;;;;;;;;;;22.16;20.46;98226.03;5044421;28;1240;-73
2021/03/12 07:38:01;;;;;;;;;;;;;;;21.59;21.32;98233.03;5094926;28;1299;-72
2021/03/12 07:40:40;;;;;;;;;;;;;;;21.17;21.74;98238.38;5079981;28;1914;-74
2021/03/12 07:43:26;;;;;;;;;;;;;;;21.75;21.33;98235.88;5061667;28;1417;-73
2021/03/12 07:46:19;;;;;;;;;;;;;;;21.91;21.06;98237.13;5102856;28;1292;-72
2021/03/12 07:49:30;;;;;;;;;;;;;;;21.87;21.00;98247.78;5081832;28;1500;-73
2021/03/12 07:52:41;;;;;;;;;;;;;;;22.15;20.72;98241.44;5082545;28;887;-72
2021/03/12 07:55:38;;;;;;;;;;;;;;;22.14;20.51;98244.72;5081419;28;1343;-72
2021/03/12 07:58:48;;;;;;;;;;;;;;;22.28;20.64;98244.38;5081864;28;1238;-73
2021/03/12 08:01:50;;;;;;;;;;;;;;;21.83;21.00;98240.16;5082134;28;1007;-72
2021/03/12 08:04:42;;;;;;;;;;;;;;;21.67;21.30;98240.13;5077229;28;960;-72
2021/03/12 08:07:24;;;;;;;;;;;;;;;22.00;20.77;98234.50;5081546;28;957;-72
2021/03/12 08:09:56;;;;;;;;;;;;;;;21.97;20.96;98239.03;5082040;28;654;-73
2021/03/12 08:12:40;;;;;;;;;;;;;;;22.09;20.60;98237.50;5066575;28;1481;-74
2021/03/12 08:15:38;;;;;;;;;;;;;;;22.19;20.43;98219.47;5077994;28;1082;-73
2021/03/12 08:18:26;;;;;;;;;;;;;;;22.21;20.59;98225.50;5068024;28;1310;-74
2021/03/12 08:21:37;;;;;;;;;;;;;;;21.88;20.75;98229.53;5082667;28;1137;-76
2021/03/12 08:24:48;;;;;;;;;;;;;;;21.71;20.96;98240.84;5080811;28;1457;-74
2021/03/12 08:27:48;;;;;;;;;;;;;;;21.37;21.57;98246.09;5081718;28;1086;-75
2021/03/12 08:30:23;;;;;;;;;;;;;;;21.77;21.13;98244.75;5081441;28;659;-75
2021/03/12 08:32:49;;;;;;;;;;;;;;;21.93;21.07;98263.00;5081199;28;1164;-74
2021/03/12 08:35:39;;;;;;;;;;;;;;;22.19;20.63;98252.69;5081854;28;884;-74
2021/03/12 08:38:35;;;;;;;;;;;;;;;22.08;20.82;98250.09;5081268;28;935;-75
2021/03/12 08:41:20;;;;;;;;;;;;;;;22.16;20.70;98242.22;5083251;28;1964;-75
2021/03/12 08:44:17;;;;;;;;;;;;;;;21.63;21.14;98245.09;5081384;28;1121;-75
2021/03/12 08:47:28;;;;;;;;;;;;;;;21.49;21.08;98239.72;5059118;28;1099;-75
2021/03/12 08:50:01;;;;;;;;;;;;;;;21.47;21.61;98239.38;5066403;28;1228;-75
2021/03/12 08:52:35;;;;;;;;;;;;;;;21.73;21.24;98244.03;5081293;28;1519;-75
2021/03/12 08:55:23;;;;;;;;;;;;;;;21.85;21.09;98217.84;5067169;28;1051;-73
2021/03/12 08:58:11;;;;;;;;;;;;;;;22.02;20.67;98215.00;5114573;28;1349;-72
2021/03/12 09:00:52;;;;;;;;;;;;;;;22.02;20.70;98204.50;5080565;28;1969;-73
2021/03/12 09:03:41;;;;;;;;;;;;;;;22.10;20.88;98208.75;5080665;28;1322;-75
2021/03/12 09:06:40;;;;;;;;;;;;;;;21.73;21.09;98207.22;5078582;28;900;-73
2021/03/12 09:09:20;;;;;;;;;;;;;;;21.24;21.70;98212.75;5114257;28;1021;-74
2021/03/12 09:12:10;;;;;;;;;;;;;;;21.49;21.55;98205.75;5080384;28;914;-74
2021/03/12 09:15:06;;;;;;;;;;;;;;;21.92;21.04;98187.75;5081020;28;1081;-73
2021/03/12 09:17:39;;;;;;;;;;;;;;;21.99;20.88;98176.25;5064709;28;1457;-75
2021/03/12 09:20:13;;;;;;;;;;;;;;;22.21;20.86;98194.31;5080210;28;1897;-75
2021/03/12 09:22:50;;;;;;;;;;;;;;;22.18;20.85;98178.22;5114646;28;1077;-73
2021/03/12 09:25:31;;;;;;;;;;;;;;;22.11;20.47;98169.88;5079823;28;1150;-73
2021/03/12 09:28:13;;;;;;;;;;;;;;;21.74;21.36;98152.16;5079669;28;898;-74
2021/03/12 09:31:01;;;;;;;;;;;;;;;21.60;21.28;98141.19;5080158;28;1177;-72
2021/03/12 09:33:42;;;;;;;;;;;;;;;21.47;21.33;98120.47;5079430;28;1954;-73
2021/03/12 09:36:28;;;;;;;;;;;;;;;21.81;21.21;98125.69;5113951;28;1588;-74
2021/03/12 09:39:10;;;;;;;;;;;;;;;21.98;20.97;98118.00;5079736;28;1902;-74
2021/03/12 09:41:43;;;;;;;;;;;;;;;22.18;20.73;98115.88;5079637;28;1307;-73
2021/03/12 09:44:09;;;;;;;;;;;;;;;22.11;20.46;98116.03;5079666;28;807;-75
2021/03/12 09:46:53;;;;;;;;;;;;;;;22.19;20.47;98117.44;5112525;28;1278;-72
2021/03/12 09:49:37;;;;;;;;;;;;;;;21.89;21.10;98121.44;5080167;28;918;-74
2021/03/12 09:52:15;;;;;;;;;;;;;;;21.53;21.51;98116.69;5079688;28;1312;-72
2021/03/12 09:55:02;;;;;;;;;;;;;;;21.38;21.74;98103.31;5079227;28;1285;-74
2021/03/12 09:57:37;;;;;;;;;;;;;;;21.80;21.17;98105.06;5079716;28;1321;-73
2021/03/12 10:00:09;;;;;;;;;;;;;;;22.11;20.79;98107.53;5079153;28;1906;-73
2021/03/12 10:02:51;;;;;;;;;;;;;;;22.14;20.51;98092.47;5080168;28;858;-73
2021/03/12 10:05:50;;;;;;;;;;;;;;;22.21;20.63;98083.78;5077220;28;1072;-73
2021/03/12 10:08:31;;;;;;;;;;;;;;;22.16;20.68;98090.00;5113285;28;1223;-73
2021/03/12 10:11:12;;;;;;;;;;;;;;;21.80;20.92;98101.44;5064911;28;1344;-73
2021/03/12 10:13:53;;;;;;;;;;;;;;;21.47;21.55;98083.69;5113462;28;1279;-76
2021/03/12 10:16:41;;;;;;;;;;;;;;;21.45;21.63;98089.78;5079811;28;1337;-75
2021/03/12 10:19:22;;;;;;;;;;;;;;;21.77;21.02;98076.84;5113449;28;1898;-74
2021/03/12 10:22:01;;;;;;;;;;;;;;;22.05;21.03;98075.28;5080637;28;652;-74
2021/03/12 10:24:34;;;;;;;;;;;;;;;22.22;20.70;98088.19;5079056;28;646;-74
2021/03/12 10:26:59;;;;;;;;;;;;;;;22.28;20.40;98089.25;5079284;28;947;-72
2021/03/12 10:29:31;;;;;;;;;;;;;;;22.12;20.87;98083.63;5083765;28;903;-73
2021/03/12 10:31:56;;;;;;;;;;;;;;;21.62;21.26;98084.91;5083907;28;842;-73
2021/03/12 10:34:42;;;;;;;;;;;;;;;21.56;21.48;98081.03;5083194;28;676;-73
2021/03/12 10:37:20;;;;;;;;;;;;;;;21.52;21.46;98069.78;5083128;28;653;-72
2021/03/12 10:39:52;;;;;;;;;;;;;;;21.90;21.23;98065.59;5083735;28;1902;-72
2021/03/12 10:42:29;;;;;;;;;;;;;;;20.78;20.93;97875.19;5083769;28;853;-74
2021/03/12 10:45:18;;;;;;;;;;;;;;;22.06;20.95;98051.38;5083414;28;911;-74
2021/03/12 10:48:15;;;;;;;;;;;;;;;22.14;20.70;98047.13;5082431;28;1126;-74
2021/03/12 10:50:57;;;;;;;;;;;;;;;22.23;20.71;98033.13;5083697;28;616;-74
2021/03/12 10:53:52;;;;;;;;;;;;;;;21.82;20.98;98031.78;5083407;28;646;-73
2021/03/12 10:56:29;;;;;;;;;;;;;;;21.38;21.80;98052.38;5083205;28;982;-73
2021/03/12 10:59:08;;;;;;;;;;;;;;;21.40;21.66;98032.88;5082998;28;1906;-73
2021/03/12 11:01:45;;;;;;;;;;;;;;;21.73;21.39;98025.97;5083355;28;594;-73
2021/03/12 11:04:12;;;;;;;;;;;;;;;22.07;21.00;98030.28;5083236;28;665;-74
2021/03/12 11:06:45;;;;;;;;;;;;;;;22.14;20.67;98012.34;5083300;28;645;-73
2021/03/12 11:09:18;;;;;;;;;;;;;;;22.25;20.63;98012.81;5083553;28;630;-75
2021/03/12 11:11:44;;;;;;;;;;;;;;;22.15;20.59;98009.06;5084429;28;837;-74
2021/03/12 11:14:21;;;;;;;;;;;;;;;21.80;21.08;98017.25;5082064;28;882;-73
2021/03/12 11:16:48;;;;;;;;;;;;;;;21.57;21.63;98026.78;5082293;28;852;-74
2021/03/12 11:19:20;;;;;;;;;;;;;;;21.61;21.25;98012.53;5083440;28;1974;-72
2021/03/12 11:21:45;;;;;;;;;;;;;;;22.03;21.07;98019.06;5082449;28;716;-72
2021/03/12 11:24:18;;;;;;;;;;;;;;;22.18;20.59;98016.66;5082274;28;742;-72
2021/03/12 11:26:50;;;;;;;;;;;;;;;22.26;20.74;98017.25;5082596;28;1061;-73
2021/03/12 11:29:15;;;;;;;;;;;;;;;22.14;20.72;98015.97;5082586;28;867;-72
2021/03/12 11:31:47;;;;;;;;;;;;;;;22.14;20.44;98015.97;5082855;28;1036;-73
2021/03/12 11:34:12;;;;;;;;;;;;;;;21.62;21.25;98016.97;5082828;28;693;-74
2021/03/12 11:36:45;;;;;;;;;;;;;;;21.53;21.54;98019.63;5083019;28;939;-74
2021/03/12 11:39:11;;;;;;;;;;;;;;;21.75;21.05;98014.97;5081271;28;1910;-73
2021/03/12 11:41:44;;;;;;;;;;;;;;;21.85;21.25;98002.56;5082706;28;677;-73
2021/03/12 11:44:09;;;;;;;;;;;;;;;22.18;20.93;98008.16;5082471;28;641;-73
2021/03/12 11:46:54;;;;;;;;;;;;;;;22.17;20.68;98005.75;5081691;28;1093;-74
2021/03/12 11:49:27;;;;;;;;;;;;;;;22.31;20.67;98006.16;5082546;28;819;-75
2021/03/12 11:51:53;;;;;;;;;;;;;;;21.87;21.15;97998.50;5083062;28;657;-74
2021/03/12 11:54:26;;;;;;;;;;;;;;;21.74;21.41;97987.09;5082554;28;634;-74
2021/03/12 11:56:51;;;;;;;;;;;;;;;21.57;21.50;97975.03;5083223;28;654;-74
2021/03/12 11:59:23;;;;;;;;;;;;;;;21.74;21.38;97973.75;5082552;28;1914;-74
2021/03/12 12:01:48;;;;;;;;;;;;;;;22.08;20.98;97966.72;5082130;28;918;-72
2021/03/12 12:04:21;;;;;;;;;;;;;;;22.25;20.83;97956.94;5081734;28;864;-72
2021/03/12 12:06:46;;;;;;;;;;;;;;;22.22;20.90;97952.16;5081979;28;918;-71
2021/03/12 12:09:18;;;;;;;;;;;;;;;22.23;20.75;97958.63;5082127;28;606;-72
2021/03/12 12:11:50;;;;;;;;;;;;;;;21.93;21.19;97957.06;5082044;28;591;-71
2021/03/12 12:14:15;;;;;;;;;;;;;;;21.77;21.33;97955.06;5081837;28;895;-73
2021/03/12 12:16:48;;;;;;;;;;;;;;;21.47;21.69;97964.78;5081516;28;893;-72
2021/03/12 12:19:14;;;;;;;;;;;;;;;21.72;21.49;97964.91;5081291;28;1898;-72
2021/03/12 12:21:46;;;;;;;;;;;;;;;21.97;21.05;97963.41;5082265;28;598;-72
2021/03/12 12:24:12;;;;;;;;;;;;;;;22.05;20.95;97959.13;5081757;28;700;-73
2021/03/12 12:26:44;;;;;;;;;;;;;;;22.17;20.94;97955.53;5081742;28;610;-73
2021/03/12 12:29:09;;;;;;;;;;;;;;;22.14;20.98;97950.78;5082018;28;578;-73
2021/03/12 12:31:41;;;;;;;;;;;;;;;22.18;20.85;97957.16;5081913;28;1017;-75
2021/03/12 12:34:06;;;;;;;;;;;;;;;21.85;21.27;97951.56;5080598;28;945;-74
2021/03/12 12:36:38;;;;;;;;;;;;;;;21.65;21.53;97969.97;5081702;28;675;-74
2021/03/12 12:39:10;;;;;;;;;;;;;;;21.34;21.99;97967.53;5081722;28;1894;-73
2021/03/12 12:41:37;;;;;;;;;;;;;;;21.83;21.41;97951.25;5081608;28;686;-73
2021/03/12 12:44:09;;;;;;;;;;;;;;;22.02;20.87;97949.50;5081756;28;717;-75
2021/03/12 12:46:35;;;;;;;;;;;;;;;22.06;20.94;97950.16;5079674;28;1133;-74
2021/03/12 12:49:14;;;;;;;;;;;;;;;22.17;21.08;97937.75;5081077;28;922;-72
2021/03/12 12:51:47;;;;;;;;;;;;;;;22.20;20.83;97931.19;5081170;28;633;-73
2021/03/12 12:54:13;;;;;;;;;;;;;;;22.26;20.76;97937.88;5081162;28;722;-74
2021/03/12 12:56:45;;;;;;;;;;;;;;;21.95;21.32;97937.56;5081857;28;648;-74
2021/03/12 12:59:10;;;;;;;;;;;;;;;21.59;21.49;97944.22;5081071;28;1964;-73
2021/03/12 13:01:42;;;;;;;;;;;;;;;21.46;21.70;97937.72;5081064;28;673;-74
2021/03/12 13:04:07;;;;;;;;;;;;;;;21.57;21.73;97938.22;5080947;28;637;-73
2021/03/12 13:06:39;;;;;;;;;;;;;;;21.96;21.31;97931.44;5081149;28;854;-73
2021/03/12 13:09:04;;;;;;;;;;;;;;;22.29;20.95;97943.44;5080513;28;901;-73
2021/03/12 13:11:37;;;;;;;;;;;;;;;22.29;20.68;97943.44;5080918;28;945;-73
2021/03/12 13:14:02;;;;;;;;;;;;;;;22.30;20.86;97936.53;5080957;28;690;-75
2021/03/12 13:16:35;;;;;;;;;;;;;;;22.24;20.91;97924.16;5081425;28;693;-73
2021/03/12 13:19:00;;;;;;;;;;;;;;;21.65;21.79;97921.81;5081281;28;677;-76
2021/03/12 13:21:33;;;;;;;;;;;;;;;21.64;21.66;97923.06;5081920;28;971;-75
2021/03/12 13:24:05;;;;;;;;;;;;;;;21.67;21.74;97922.97;5080403;28;807;-73
2021/03/12 13:26:30;;;;;;;;;;;;;;;21.84;21.53;97926.53;5080683;28;855;-73
2021/03/12 13:29:03;;;;;;;;;;;;;;;21.91;21.40;97917.81;5080823;28;725;-73
2021/03/12 13:31:29;;;;;;;;;;;;;;;22.23;20.91;97913.28;5081429;28;736;-73
2021/03/12 13:34:02;;;;;;;;;;;;;;;22.16;20.83;97907.81;5080416;28;685;-75
2021/03/12 13:36:28;;;;;;;;;;;;;;;22.22;20.91;97906.81;5082068;28;952;-75